sensor_id;sensor_type;location;lat;lon;timestamp;P1;durP1;ratioP1;P2;durP2;ratioP2
13683;SDS011;6914;53.552;9.908;2023-07-30T00:00:30;16.50;;;7.30;;
13683;SDS011;6914;53.552;9.908;2023-07-30T00:02:58;8.33;;;6.90;;
13683;SDS011;6914;53.552;9.908;2023-07-30T00:05:25;7.50;;;6.90;;
13683;SDS011;6914;53.552;9.908;2023-07-30T00:07:53;11.53;;;8.23;;
13683;SDS011;6914;53.552;9.908;2023-07-30T00:10:21;7.00;;;6.50;;
13683;SDS011;6914;53.552;9.908;2023-07-30T00:12:49;9.07;;;7.53;;
13683;SDS011;6914;53.552;9.908;2023-07-30T00:15:18;7.97;;;6.30;;
13683;SDS011;6914;53.552;9.908;2023-07-30T00:17:45;8.13;;;6.97;;
13683;SDS011;6914;53.552;9.908;2023-07-30T00:20:13;6.13;;;5.73;;
13683;SDS011;6914;53.552;9.908;2023-07-30T00:22:40;6.40;;;6.00;;
13683;SDS011;6914;53.552;9.908;2023-07-30T00:25:07;8.77;;;7.00;;
13683;SDS011;6914;53.552;9.908;2023-07-30T00:27:34;7.37;;;6.70;;
13683;SDS011;6914;53.552;9.908;2023-07-30T00:30:01;6.50;;;5.67;;
13683;SDS011;6914;53.552;9.908;2023-07-30T00:32:30;8.90;;;6.30;;
13683;SDS011;6914;53.552;9.908;2023-07-30T00:34:57;6.90;;;6.47;;
13683;SDS011;6914;53.552;9.908;2023-07-30T00:37:24;6.17;;;5.77;;
13683;SDS011;6914;53.552;9.908;2023-07-30T00:39:51;10.60;;;6.97;;
13683;SDS011;6914;53.552;9.908;2023-07-30T00:42:18;7.03;;;6.43;;
13683;SDS011;6914;53.552;9.908;2023-07-30T00:44:46;7.83;;;5.93;;
13683;SDS011;6914;53.552;9.908;2023-07-30T00:47:13;13.23;;;7.07;;
13683;SDS011;6914;53.552;9.908;2023-07-30T00:49:41;7.23;;;6.53;;
13683;SDS011;6914;53.552;9.908;2023-07-30T00:52:08;6.93;;;6.53;;
13683;SDS011;6914;53.552;9.908;2023-07-30T00:54:35;7.87;;;7.27;;
13683;SDS011;6914;53.552;9.908;2023-07-30T00:57:03;8.20;;;7.50;;
13683;SDS011;6914;53.552;9.908;2023-07-30T00:59:32;9.00;;;8.27;;
13683;SDS011;6914;53.552;9.908;2023-07-30T01:01:59;11.60;;;7.63;;
13683;SDS011;6914;53.552;9.908;2023-07-30T01:04:27;8.03;;;7.47;;
13683;SDS011;6914;53.552;9.908;2023-07-30T01:06:56;8.67;;;7.97;;
13683;SDS011;6914;53.552;9.908;2023-07-30T01:09:23;9.40;;;8.60;;
13683;SDS011;6914;53.552;9.908;2023-07-30T01:11:51;9.43;;;8.43;;
13683;SDS011;6914;53.552;9.908;2023-07-30T01:14:18;8.03;;;7.33;;
13683;SDS011;6914;53.552;9.908;2023-07-30T01:16:47;9.80;;;8.87;;
13683;SDS011;6914;53.552;9.908;2023-07-30T01:19:14;11.13;;;8.93;;
13683;SDS011;6914;53.552;9.908;2023-07-30T01:21:42;10.10;;;9.30;;
13683;SDS011;6914;53.552;9.908;2023-07-30T01:24:10;9.53;;;8.83;;
13683;SDS011;6914;53.552;9.908;2023-07-30T01:26:37;10.00;;;8.70;;
13683;SDS011;6914;53.552;9.908;2023-07-30T01:29:07;9.33;;;8.57;;
13683;SDS011;6914;53.552;9.908;2023-07-30T01:31:36;10.30;;;9.03;;
13683;SDS011;6914;53.552;9.908;2023-07-30T01:34:06;10.20;;;9.43;;
13683;SDS011;6914;53.552;9.908;2023-07-30T01:36:34;9.87;;;9.17;;
13683;SDS011;6914;53.552;9.908;2023-07-30T01:39:03;10.30;;;9.30;;
13683;SDS011;6914;53.552;9.908;2023-07-30T01:41:30;10.83;;;10.03;;
13683;SDS011;6914;53.552;9.908;2023-07-30T01:43:57;14.53;;;9.20;;
13683;SDS011;6914;53.552;9.908;2023-07-30T01:46:24;12.07;;;10.97;;
13683;SDS011;6914;53.552;9.908;2023-07-30T01:48:52;11.53;;;10.00;;
13683;SDS011;6914;53.552;9.908;2023-07-30T01:51:19;15.77;;;10.67;;
13683;SDS011;6914;53.552;9.908;2023-07-30T01:53:46;13.70;;;10.97;;
13683;SDS011;6914;53.552;9.908;2023-07-30T01:56:14;15.53;;;10.70;;
13683;SDS011;6914;53.552;9.908;2023-07-30T01:58:41;15.93;;;10.23;;
13683;SDS011;6914;53.552;9.908;2023-07-30T02:01:09;10.93;;;10.03;;
13683;SDS011;6914;53.552;9.908;2023-07-30T02:03:36;16.20;;;10.17;;
13683;SDS011;6914;53.552;9.908;2023-07-30T02:06:03;20.20;;;11.40;;
13683;SDS011;6914;53.552;9.908;2023-07-30T02:08:30;12.37;;;11.27;;
13683;SDS011;6914;53.552;9.908;2023-07-30T02:10:58;12.03;;;10.80;;
13683;SDS011;6914;53.552;9.908;2023-07-30T02:13:26;15.93;;;11.30;;
13683;SDS011;6914;53.552;9.908;2023-07-30T02:15:54;20.20;;;12.30;;
13683;SDS011;6914;53.552;9.908;2023-07-30T02:18:21;15.50;;;12.50;;
13683;SDS011;6914;53.552;9.908;2023-07-30T02:20:48;23.23;;;13.47;;
13683;SDS011;6914;53.552;9.908;2023-07-30T02:23:15;13.13;;;11.83;;
13683;SDS011;6914;53.552;9.908;2023-07-30T02:25:42;21.27;;;11.73;;
13683;SDS011;6914;53.552;9.908;2023-07-30T02:28:09;21.43;;;12.50;;
13683;SDS011;6914;53.552;9.908;2023-07-30T02:30:38;14.10;;;12.80;;
13683;SDS011;6914;53.552;9.908;2023-07-30T02:33:05;13.43;;;12.23;;
13683;SDS011;6914;53.552;9.908;2023-07-30T02:35:32;17.40;;;12.40;;
13683;SDS011;6914;53.552;9.908;2023-07-30T02:37:59;19.43;;;14.13;;
13683;SDS011;6914;53.552;9.908;2023-07-30T02:40:26;24.70;;;15.03;;
13683;SDS011;6914;53.552;9.908;2023-07-30T02:42:53;20.33;;;14.53;;
13683;SDS011;6914;53.552;9.908;2023-07-30T02:45:20;21.83;;;14.97;;
13683;SDS011;6914;53.552;9.908;2023-07-30T02:47:49;20.07;;;15.07;;
13683;SDS011;6914;53.552;9.908;2023-07-30T02:50:16;16.63;;;13.67;;
13683;SDS011;6914;53.552;9.908;2023-07-30T02:52:43;17.67;;;14.30;;
13683;SDS011;6914;53.552;9.908;2023-07-30T02:55:10;20.60;;;15.07;;
13683;SDS011;6914;53.552;9.908;2023-07-30T02:57:37;15.70;;;13.83;;
13683;SDS011;6914;53.552;9.908;2023-07-30T03:00:05;20.00;;;14.67;;
13683;SDS011;6914;53.552;9.908;2023-07-30T03:02:33;27.17;;;15.33;;
13683;SDS011;6914;53.552;9.908;2023-07-30T03:05:02;18.43;;;16.53;;
13683;SDS011;6914;53.552;9.908;2023-07-30T03:07:29;27.67;;;15.40;;
13683;SDS011;6914;53.552;9.908;2023-07-30T03:09:57;20.00;;;15.50;;
13683;SDS011;6914;53.552;9.908;2023-07-30T03:12:24;19.53;;;16.20;;
13683;SDS011;6914;53.552;9.908;2023-07-30T03:14:51;19.63;;;15.13;;
13683;SDS011;6914;53.552;9.908;2023-07-30T03:17:18;23.17;;;15.20;;
13683;SDS011;6914;53.552;9.908;2023-07-30T03:19:46;18.70;;;15.43;;
13683;SDS011;6914;53.552;9.908;2023-07-30T03:22:14;25.77;;;16.40;;
13683;SDS011;6914;53.552;9.908;2023-07-30T03:24:41;22.30;;;15.23;;
13683;SDS011;6914;53.552;9.908;2023-07-30T03:27:08;25.10;;;17.33;;
13683;SDS011;6914;53.552;9.908;2023-07-30T03:29:35;18.97;;;15.73;;
13683;SDS011;6914;53.552;9.908;2023-07-30T03:32:03;19.73;;;15.90;;
13683;SDS011;6914;53.552;9.908;2023-07-30T03:34:30;25.23;;;17.17;;
13683;SDS011;6914;53.552;9.908;2023-07-30T03:36:57;18.87;;;16.97;;
13683;SDS011;6914;53.552;9.908;2023-07-30T03:39:27;24.20;;;16.83;;
13683;SDS011;6914;53.552;9.908;2023-07-30T03:41:54;19.13;;;16.57;;
13683;SDS011;6914;53.552;9.908;2023-07-30T03:44:21;22.20;;;16.40;;
13683;SDS011;6914;53.552;9.908;2023-07-30T03:46:49;24.00;;;16.57;;
13683;SDS011;6914;53.552;9.908;2023-07-30T03:49:16;23.53;;;17.60;;
13683;SDS011;6914;53.552;9.908;2023-07-30T03:51:43;23.10;;;17.23;;
13683;SDS011;6914;53.552;9.908;2023-07-30T03:54:10;22.47;;;18.17;;
13683;SDS011;6914;53.552;9.908;2023-07-30T03:56:38;33.10;;;17.53;;
13683;SDS011;6914;53.552;9.908;2023-07-30T03:59:05;19.23;;;15.67;;
13683;SDS011;6914;53.552;9.908;2023-07-30T04:01:33;21.13;;;16.77;;
13683;SDS011;6914;53.552;9.908;2023-07-30T04:04:00;24.60;;;17.50;;
13683;SDS011;6914;53.552;9.908;2023-07-30T04:06:27;28.80;;;18.20;;
13683;SDS011;6914;53.552;9.908;2023-07-30T04:08:54;22.20;;;17.57;;
13683;SDS011;6914;53.552;9.908;2023-07-30T04:11:21;31.37;;;17.67;;
13683;SDS011;6914;53.552;9.908;2023-07-30T04:13:49;29.53;;;18.13;;
13683;SDS011;6914;53.552;9.908;2023-07-30T04:16:16;20.97;;;17.63;;
13683;SDS011;6914;53.552;9.908;2023-07-30T04:18:44;20.10;;;17.40;;
13683;SDS011;6914;53.552;9.908;2023-07-30T04:21:11;19.30;;;15.67;;
13683;SDS011;6914;53.552;9.908;2023-07-30T04:23:38;27.57;;;17.03;;
13683;SDS011;6914;53.552;9.908;2023-07-30T04:26:06;29.83;;;16.90;;
13683;SDS011;6914;53.552;9.908;2023-07-30T04:28:33;23.70;;;15.93;;
13683;SDS011;6914;53.552;9.908;2023-07-30T04:31:02;20.00;;;16.13;;
13683;SDS011;6914;53.552;9.908;2023-07-30T04:33:29;18.90;;;15.13;;
13683;SDS011;6914;53.552;9.908;2023-07-30T04:35:56;21.67;;;15.23;;
13683;SDS011;6914;53.552;9.908;2023-07-30T04:38:23;37.47;;;15.27;;
13683;SDS011;6914;53.552;9.908;2023-07-30T04:40:50;26.13;;;15.07;;
13683;SDS011;6914;53.552;9.908;2023-07-30T04:43:18;20.90;;;14.67;;
13683;SDS011;6914;53.552;9.908;2023-07-30T04:45:45;24.30;;;13.90;;
13683;SDS011;6914;53.552;9.908;2023-07-30T04:48:14;21.73;;;14.10;;
13683;SDS011;6914;53.552;9.908;2023-07-30T04:50:41;20.90;;;14.20;;
13683;SDS011;6914;53.552;9.908;2023-07-30T04:53:08;24.63;;;15.23;;
13683;SDS011;6914;53.552;9.908;2023-07-30T04:55:35;31.10;;;14.00;;
13683;SDS011;6914;53.552;9.908;2023-07-30T04:58:03;20.77;;;13.67;;
13683;SDS011;6914;53.552;9.908;2023-07-30T05:00:30;42.87;;;16.03;;
13683;SDS011;6914;53.552;9.908;2023-07-30T05:02:57;29.43;;;15.07;;
13683;SDS011;6914;53.552;9.908;2023-07-30T05:05:26;28.63;;;15.20;;
13683;SDS011;6914;53.552;9.908;2023-07-30T05:07:53;24.80;;;14.40;;
13683;SDS011;6914;53.552;9.908;2023-07-30T05:10:21;20.83;;;14.60;;
13683;SDS011;6914;53.552;9.908;2023-07-30T05:12:48;26.87;;;13.90;;
13683;SDS011;6914;53.552;9.908;2023-07-30T05:15:15;18.47;;;14.07;;
13683;SDS011;6914;53.552;9.908;2023-07-30T05:17:42;27.33;;;15.60;;
13683;SDS011;6914;53.552;9.908;2023-07-30T05:20:10;31.77;;;14.03;;
13683;SDS011;6914;53.552;9.908;2023-07-30T05:22:39;17.97;;;13.30;;
13683;SDS011;6914;53.552;9.908;2023-07-30T05:25:06;28.67;;;13.83;;
13683;SDS011;6914;53.552;9.908;2023-07-30T05:27:34;18.87;;;13.10;;
13683;SDS011;6914;53.552;9.908;2023-07-30T05:30:02;19.60;;;13.50;;
13683;SDS011;6914;53.552;9.908;2023-07-30T05:32:29;17.80;;;12.67;;
13683;SDS011;6914;53.552;9.908;2023-07-30T05:34:57;18.60;;;13.40;;
13683;SDS011;6914;53.552;9.908;2023-07-30T05:37:24;25.17;;;14.43;;
13683;SDS011;6914;53.552;9.908;2023-07-30T05:39:53;28.70;;;13.30;;
13683;SDS011;6914;53.552;9.908;2023-07-30T05:42:20;22.73;;;14.03;;
13683;SDS011;6914;53.552;9.908;2023-07-30T05:44:47;30.37;;;13.47;;
13683;SDS011;6914;53.552;9.908;2023-07-30T05:47:15;25.87;;;13.33;;
13683;SDS011;6914;53.552;9.908;2023-07-30T05:49:42;20.60;;;13.87;;
13683;SDS011;6914;53.552;9.908;2023-07-30T05:52:09;13.27;;;11.90;;
13683;SDS011;6914;53.552;9.908;2023-07-30T05:54:36;25.80;;;12.70;;
13683;SDS011;6914;53.552;9.908;2023-07-30T05:57:05;19.90;;;12.80;;
13683;SDS011;6914;53.552;9.908;2023-07-30T05:59:32;20.57;;;12.80;;
13683;SDS011;6914;53.552;9.908;2023-07-30T06:02:02;26.37;;;12.63;;
13683;SDS011;6914;53.552;9.908;2023-07-30T06:04:30;17.30;;;11.27;;
13683;SDS011;6914;53.552;9.908;2023-07-30T06:06:57;26.90;;;12.47;;
13683;SDS011;6914;53.552;9.908;2023-07-30T06:09:25;19.43;;;12.73;;
13683;SDS011;6914;53.552;9.908;2023-07-30T06:11:52;20.53;;;11.97;;
13683;SDS011;6914;53.552;9.908;2023-07-30T06:14:21;19.23;;;11.63;;
13683;SDS011;6914;53.552;9.908;2023-07-30T06:16:48;26.63;;;12.10;;
13683;SDS011;6914;53.552;9.908;2023-07-30T06:19:15;23.23;;;12.07;;
13683;SDS011;6914;53.552;9.908;2023-07-30T06:21:42;18.07;;;11.70;;
13683;SDS011;6914;53.552;9.908;2023-07-30T06:24:09;22.07;;;12.87;;
13683;SDS011;6914;53.552;9.908;2023-07-30T06:26:36;27.90;;;12.37;;
13683;SDS011;6914;53.552;9.908;2023-07-30T06:29:03;20.50;;;11.67;;
13683;SDS011;6914;53.552;9.908;2023-07-30T06:31:33;26.30;;;14.63;;
13683;SDS011;6914;53.552;9.908;2023-07-30T06:34:04;25.83;;;13.83;;
13683;SDS011;6914;53.552;9.908;2023-07-30T06:36:32;39.50;;;14.60;;
13683;SDS011;6914;53.552;9.908;2023-07-30T06:39:00;22.63;;;14.47;;
13683;SDS011;6914;53.552;9.908;2023-07-30T06:41:27;24.87;;;14.40;;
13683;SDS011;6914;53.552;9.908;2023-07-30T06:43:57;32.20;;;14.73;;
13683;SDS011;6914;53.552;9.908;2023-07-30T06:46:31;25.53;;;14.83;;
13683;SDS011;6914;53.552;9.908;2023-07-30T06:51:55;34.13;;;13.50;;
13683;SDS011;6914;53.552;9.908;2023-07-30T06:54:22;33.87;;;15.63;;
13683;SDS011;6914;53.552;9.908;2023-07-30T06:56:49;28.83;;;14.30;;
13683;SDS011;6914;53.552;9.908;2023-07-30T06:59:17;43.27;;;14.30;;
13683;SDS011;6914;53.552;9.908;2023-07-30T07:01:44;35.37;;;14.03;;
13683;SDS011;6914;53.552;9.908;2023-07-30T07:04:11;46.23;;;14.07;;
13683;SDS011;6914;53.552;9.908;2023-07-30T07:06:38;32.03;;;14.37;;
13683;SDS011;6914;53.552;9.908;2023-07-30T07:09:07;34.33;;;15.17;;
13683;SDS011;6914;53.552;9.908;2023-07-30T07:11:34;21.60;;;14.30;;
13683;SDS011;6914;53.552;9.908;2023-07-30T07:14:01;46.73;;;14.70;;
13683;SDS011;6914;53.552;9.908;2023-07-30T07:16:28;48.37;;;13.17;;
13683;SDS011;6914;53.552;9.908;2023-07-30T07:18:55;25.80;;;12.43;;
13683;SDS011;6914;53.552;9.908;2023-07-30T07:21:22;18.63;;;12.30;;
13683;SDS011;6914;53.552;9.908;2023-07-30T07:23:51;24.90;;;12.40;;
13683;SDS011;6914;53.552;9.908;2023-07-30T07:26:19;39.27;;;12.40;;
13683;SDS011;6914;53.552;9.908;2023-07-30T07:28:46;27.90;;;13.03;;
13683;SDS011;6914;53.552;9.908;2023-07-30T07:31:14;30.40;;;12.33;;
13683;SDS011;6914;53.552;9.908;2023-07-30T07:33:41;29.03;;;11.20;;
13683;SDS011;6914;53.552;9.908;2023-07-30T07:36:08;35.23;;;11.90;;
13683;SDS011;6914;53.552;9.908;2023-07-30T07:38:35;31.33;;;10.53;;
13683;SDS011;6914;53.552;9.908;2023-07-30T07:41:02;26.97;;;11.67;;
13683;SDS011;6914;53.552;9.908;2023-07-30T07:43:31;19.70;;;10.57;;
13683;SDS011;6914;53.552;9.908;2023-07-30T07:45:59;36.83;;;10.47;;
13683;SDS011;6914;53.552;9.908;2023-07-30T07:48:26;30.50;;;9.70;;
13683;SDS011;6914;53.552;9.908;2023-07-30T07:50:53;29.70;;;9.50;;
13683;SDS011;6914;53.552;9.908;2023-07-30T07:53:20;18.10;;;7.70;;
13683;SDS011;6914;53.552;9.908;2023-07-30T07:55:47;19.63;;;9.87;;
13683;SDS011;6914;53.552;9.908;2023-07-30T07:58:14;33.80;;;12.50;;
13683;SDS011;6914;53.552;9.908;2023-07-30T08:00:43;28.67;;;9.90;;
13683;SDS011;6914;53.552;9.908;2023-07-30T08:03:10;27.77;;;11.27;;
13683;SDS011;6914;53.552;9.908;2023-07-30T08:05:37;26.37;;;11.47;;
13683;SDS011;6914;53.552;9.908;2023-07-30T08:08:04;20.33;;;11.30;;
13683;SDS011;6914;53.552;9.908;2023-07-30T08:10:31;29.40;;;12.40;;
13683;SDS011;6914;53.552;9.908;2023-07-30T08:12:58;25.33;;;12.37;;
13683;SDS011;6914;53.552;9.908;2023-07-30T08:15:25;21.70;;;11.67;;
13683;SDS011;6914;53.552;9.908;2023-07-30T08:17:54;19.13;;;10.80;;
13683;SDS011;6914;53.552;9.908;2023-07-30T08:20:21;25.77;;;9.33;;
13683;SDS011;6914;53.552;9.908;2023-07-30T08:22:48;22.87;;;10.00;;
13683;SDS011;6914;53.552;9.908;2023-07-30T08:25:15;28.53;;;10.00;;
13683;SDS011;6914;53.552;9.908;2023-07-30T08:27:42;18.63;;;8.83;;
13683;SDS011;6914;53.552;9.908;2023-07-30T08:30:10;23.33;;;7.70;;
13683;SDS011;6914;53.552;9.908;2023-07-30T08:32:37;19.03;;;6.70;;
13683;SDS011;6914;53.552;9.908;2023-07-30T08:35:08;11.77;;;6.43;;
13683;SDS011;6914;53.552;9.908;2023-07-30T08:37:35;19.20;;;6.30;;
13683;SDS011;6914;53.552;9.908;2023-07-30T08:40:02;22.23;;;6.87;;
13683;SDS011;6914;53.552;9.908;2023-07-30T08:42:30;13.07;;;6.23;;
13683;SDS011;6914;53.552;9.908;2023-07-30T08:44:57;31.70;;;6.13;;
13683;SDS011;6914;53.552;9.908;2023-07-30T08:47:24;33.47;;;6.40;;
13683;SDS011;6914;53.552;9.908;2023-07-30T08:49:51;12.10;;;5.53;;
13683;SDS011;6914;53.552;9.908;2023-07-30T08:52:20;20.13;;;6.07;;
13683;SDS011;6914;53.552;9.908;2023-07-30T08:54:47;17.10;;;5.53;;
13683;SDS011;6914;53.552;9.908;2023-07-30T08:57:16;17.60;;;5.63;;
13683;SDS011;6914;53.552;9.908;2023-07-30T08:59:49;20.93;;;5.50;;
13683;SDS011;6914;53.552;9.908;2023-07-30T09:02:18;21.20;;;4.83;;
13683;SDS011;6914;53.552;9.908;2023-07-30T09:04:45;21.23;;;5.77;;
13683;SDS011;6914;53.552;9.908;2023-07-30T09:07:14;15.07;;;5.07;;
13683;SDS011;6914;53.552;9.908;2023-07-30T09:09:42;15.43;;;4.83;;
13683;SDS011;6914;53.552;9.908;2023-07-30T09:12:12;23.60;;;5.57;;
13683;SDS011;6914;53.552;9.908;2023-07-30T09:14:40;16.33;;;4.90;;
13683;SDS011;6914;53.552;9.908;2023-07-30T09:17:09;12.93;;;4.50;;
13683;SDS011;6914;53.552;9.908;2023-07-30T09:19:36;25.87;;;5.47;;
13683;SDS011;6914;53.552;9.908;2023-07-30T09:22:04;24.43;;;4.80;;
13683;SDS011;6914;53.552;9.908;2023-07-30T09:24:31;15.33;;;4.27;;
13683;SDS011;6914;53.552;9.908;2023-07-30T09:27:02;18.53;;;5.10;;
13683;SDS011;6914;53.552;9.908;2023-07-30T09:29:29;17.63;;;4.20;;
13683;SDS011;6914;53.552;9.908;2023-07-30T09:31:57;10.70;;;4.30;;
13683;SDS011;6914;53.552;9.908;2023-07-30T09:34:24;12.03;;;4.40;;
13683;SDS011;6914;53.552;9.908;2023-07-30T09:36:52;9.60;;;3.73;;
13683;SDS011;6914;53.552;9.908;2023-07-30T09:39:21;23.03;;;5.23;;
13683;SDS011;6914;53.552;9.908;2023-07-30T09:41:48;17.00;;;5.03;;
13683;SDS011;6914;53.552;9.908;2023-07-30T09:44:18;16.50;;;5.60;;
13683;SDS011;6914;53.552;9.908;2023-07-30T09:46:45;30.63;;;5.57;;
13683;SDS011;6914;53.552;9.908;2023-07-30T09:49:13;27.13;;;5.43;;
13683;SDS011;6914;53.552;9.908;2023-07-30T09:51:40;16.87;;;4.30;;
13683;SDS011;6914;53.552;9.908;2023-07-30T09:54:11;16.93;;;5.10;;
13683;SDS011;6914;53.552;9.908;2023-07-30T09:56:39;14.60;;;4.70;;
13683;SDS011;6914;53.552;9.908;2023-07-30T09:59:07;16.90;;;5.13;;
13683;SDS011;6914;53.552;9.908;2023-07-30T10:01:38;13.87;;;4.07;;
13683;SDS011;6914;53.552;9.908;2023-07-30T10:04:07;10.40;;;4.30;;
13683;SDS011;6914;53.552;9.908;2023-07-30T10:06:35;20.73;;;4.53;;
13683;SDS011;6914;53.552;9.908;2023-07-30T10:09:04;16.77;;;4.80;;
13683;SDS011;6914;53.552;9.908;2023-07-30T10:11:32;18.97;;;5.00;;
13683;SDS011;6914;53.552;9.908;2023-07-30T10:14:00;12.37;;;4.07;;
13683;SDS011;6914;53.552;9.908;2023-07-30T10:16:27;14.30;;;4.50;;
13683;SDS011;6914;53.552;9.908;2023-07-30T10:18:56;29.10;;;5.30;;
13683;SDS011;6914;53.552;9.908;2023-07-30T10:21:25;17.20;;;5.90;;
13683;SDS011;6914;53.552;9.908;2023-07-30T10:23:58;16.63;;;5.40;;
13683;SDS011;6914;53.552;9.908;2023-07-30T10:26:29;5.00;;;3.30;;
13683;SDS011;6914;53.552;9.908;2023-07-30T10:29:15;18.90;;;5.10;;
13683;SDS011;6914;53.552;9.908;2023-07-30T10:31:43;19.57;;;4.73;;
13683;SDS011;6914;53.552;9.908;2023-07-30T10:34:12;6.63;;;4.07;;
13683;SDS011;6914;53.552;9.908;2023-07-30T10:36:43;17.17;;;4.50;;
13683;SDS011;6914;53.552;9.908;2023-07-30T10:39:11;10.33;;;5.03;;
13683;SDS011;6914;53.552;9.908;2023-07-30T10:41:38;15.63;;;5.03;;
13683;SDS011;6914;53.552;9.908;2023-07-30T10:44:05;15.30;;;4.00;;
13683;SDS011;6914;53.552;9.908;2023-07-30T10:46:32;9.97;;;4.37;;
13683;SDS011;6914;53.552;9.908;2023-07-30T10:48:59;8.67;;;3.73;;
13683;SDS011;6914;53.552;9.908;2023-07-30T10:51:31;9.27;;;3.70;;
13683;SDS011;6914;53.552;9.908;2023-07-30T10:53:58;13.77;;;4.13;;
13683;SDS011;6914;53.552;9.908;2023-07-30T10:56:25;10.50;;;3.43;;
13683;SDS011;6914;53.552;9.908;2023-07-30T10:58:54;8.10;;;3.57;;
13683;SDS011;6914;53.552;9.908;2023-07-30T11:01:37;8.83;;;3.57;;
13683;SDS011;6914;53.552;9.908;2023-07-30T11:04:08;8.63;;;4.20;;
13683;SDS011;6914;53.552;9.908;2023-07-30T11:06:37;23.00;;;5.17;;
13683;SDS011;6914;53.552;9.908;2023-07-30T11:09:04;11.43;;;3.30;;
13683;SDS011;6914;53.552;9.908;2023-07-30T11:11:32;11.33;;;3.13;;
13683;SDS011;6914;53.552;9.908;2023-07-30T11:13:59;8.87;;;3.60;;
13683;SDS011;6914;53.552;9.908;2023-07-30T11:16:28;8.90;;;3.30;;
13683;SDS011;6914;53.552;9.908;2023-07-30T11:18:56;10.10;;;3.73;;
13683;SDS011;6914;53.552;9.908;2023-07-30T11:21:23;6.50;;;2.87;;
13683;SDS011;6914;53.552;9.908;2023-07-30T11:23:51;8.67;;;3.13;;
13683;SDS011;6914;53.552;9.908;2023-07-30T11:26:19;14.70;;;3.50;;
13683;SDS011;6914;53.552;9.908;2023-07-30T11:28:46;7.13;;;3.70;;
13683;SDS011;6914;53.552;9.908;2023-07-30T11:31:14;7.40;;;2.70;;
13683;SDS011;6914;53.552;9.908;2023-07-30T11:33:42;8.50;;;2.93;;
13683;SDS011;6914;53.552;9.908;2023-07-30T11:36:11;7.50;;;3.10;;
13683;SDS011;6914;53.552;9.908;2023-07-30T11:38:38;4.63;;;2.20;;
13683;SDS011;6914;53.552;9.908;2023-07-30T11:41:07;10.40;;;3.30;;
13683;SDS011;6914;53.552;9.908;2023-07-30T11:43:36;9.73;;;2.80;;
13683;SDS011;6914;53.552;9.908;2023-07-30T11:46:07;7.13;;;2.90;;
13683;SDS011;6914;53.552;9.908;2023-07-30T11:48:34;4.13;;;2.77;;
13683;SDS011;6914;53.552;9.908;2023-07-30T11:51:02;6.87;;;2.03;;
13683;SDS011;6914;53.552;9.908;2023-07-30T11:56:16;7.30;;;2.40;;
13683;SDS011;6914;53.552;9.908;2023-07-30T11:58:43;6.30;;;2.53;;
13683;SDS011;6914;53.552;9.908;2023-07-30T12:01:10;8.40;;;2.00;;
13683;SDS011;6914;53.552;9.908;2023-07-30T12:03:37;8.60;;;2.30;;
13683;SDS011;6914;53.552;9.908;2023-07-30T12:06:06;5.80;;;1.70;;
13683;SDS011;6914;53.552;9.908;2023-07-30T12:08:34;10.27;;;2.30;;
13683;SDS011;6914;53.552;9.908;2023-07-30T12:11:04;4.10;;;2.20;;
13683;SDS011;6914;53.552;9.908;2023-07-30T12:13:33;11.97;;;2.60;;
13683;SDS011;6914;53.552;9.908;2023-07-30T12:16:00;9.00;;;2.30;;
13683;SDS011;6914;53.552;9.908;2023-07-30T12:18:27;12.40;;;2.70;;
13683;SDS011;6914;53.552;9.908;2023-07-30T12:20:55;13.30;;;2.47;;
13683;SDS011;6914;53.552;9.908;2023-07-30T12:23:23;7.00;;;2.90;;
13683;SDS011;6914;53.552;9.908;2023-07-30T12:25:50;6.77;;;2.40;;
13683;SDS011;6914;53.552;9.908;2023-07-30T12:28:18;3.77;;;3.20;;
13683;SDS011;6914;53.552;9.908;2023-07-30T12:30:47;3.97;;;1.97;;
13683;SDS011;6914;53.552;9.908;2023-07-30T12:33:14;3.63;;;2.30;;
13683;SDS011;6914;53.552;9.908;2023-07-30T12:35:41;7.80;;;2.70;;
13683;SDS011;6914;53.552;9.908;2023-07-30T12:38:08;4.80;;;2.20;;
13683;SDS011;6914;53.552;9.908;2023-07-30T12:40:36;5.40;;;2.50;;
13683;SDS011;6914;53.552;9.908;2023-07-30T12:43:03;6.73;;;2.03;;
13683;SDS011;6914;53.552;9.908;2023-07-30T12:45:30;3.40;;;2.53;;
13683;SDS011;6914;53.552;9.908;2023-07-30T12:48:00;9.03;;;2.77;;
13683;SDS011;6914;53.552;9.908;2023-07-30T12:50:27;5.50;;;2.93;;
13683;SDS011;6914;53.552;9.908;2023-07-30T12:52:54;6.03;;;2.70;;
13683;SDS011;6914;53.552;9.908;2023-07-30T12:55:21;5.50;;;3.10;;
13683;SDS011;6914;53.552;9.908;2023-07-30T12:57:48;7.30;;;3.10;;
13683;SDS011;6914;53.552;9.908;2023-07-30T13:00:15;5.30;;;2.67;;
13683;SDS011;6914;53.552;9.908;2023-07-30T13:02:43;4.63;;;2.50;;
13683;SDS011;6914;53.552;9.908;2023-07-30T13:05:12;9.77;;;3.57;;
13683;SDS011;6914;53.552;9.908;2023-07-30T13:07:40;5.83;;;2.23;;
13683;SDS011;6914;53.552;9.908;2023-07-30T13:10:08;10.60;;;3.30;;
13683;SDS011;6914;53.552;9.908;2023-07-30T13:12:35;10.13;;;2.17;;
13683;SDS011;6914;53.552;9.908;2023-07-30T13:15:03;10.10;;;3.67;;
13683;SDS011;6914;53.552;9.908;2023-07-30T13:17:30;5.00;;;2.80;;
13683;SDS011;6914;53.552;9.908;2023-07-30T13:19:58;7.90;;;2.60;;
13683;SDS011;6914;53.552;9.908;2023-07-30T13:22:26;9.17;;;3.03;;
13683;SDS011;6914;53.552;9.908;2023-07-30T13:24:53;4.83;;;3.17;;
13683;SDS011;6914;53.552;9.908;2023-07-30T13:27:21;7.43;;;3.10;;
13683;SDS011;6914;53.552;9.908;2023-07-30T13:29:48;4.73;;;2.70;;
13683;SDS011;6914;53.552;9.908;2023-07-30T13:32:15;4.10;;;1.87;;
13683;SDS011;6914;53.552;9.908;2023-07-30T13:34:42;6.00;;;2.30;;
13683;SDS011;6914;53.552;9.908;2023-07-30T13:37:10;3.73;;;2.80;;
13683;SDS011;6914;53.552;9.908;2023-07-30T13:39:38;3.13;;;2.10;;
13683;SDS011;6914;53.552;9.908;2023-07-30T13:42:06;8.13;;;3.07;;
13683;SDS011;6914;53.552;9.908;2023-07-30T13:44:33;12.40;;;3.20;;
13683;SDS011;6914;53.552;9.908;2023-07-30T13:47:00;5.43;;;2.80;;
13683;SDS011;6914;53.552;9.908;2023-07-30T13:49:27;3.87;;;3.57;;
13683;SDS011;6914;53.552;9.908;2023-07-30T13:51:54;7.50;;;2.93;;
13683;SDS011;6914;53.552;9.908;2023-07-30T13:54:22;3.87;;;3.03;;
13683;SDS011;6914;53.552;9.908;2023-07-30T13:56:50;7.10;;;2.60;;
13683;SDS011;6914;53.552;9.908;2023-07-30T13:59:17;6.13;;;3.03;;
13683;SDS011;6914;53.552;9.908;2023-07-30T14:01:44;10.50;;;2.00;;
13683;SDS011;6914;53.552;9.908;2023-07-30T14:04:11;2.23;;;2.03;;
13683;SDS011;6914;53.552;9.908;2023-07-30T14:06:38;4.73;;;2.73;;
13683;SDS011;6914;53.552;9.908;2023-07-30T14:09:05;8.77;;;2.77;;
13683;SDS011;6914;53.552;9.908;2023-07-30T14:11:33;2.67;;;2.10;;
13683;SDS011;6914;53.552;9.908;2023-07-30T14:14:01;5.00;;;2.40;;
13683;SDS011;6914;53.552;9.908;2023-07-30T14:16:28;2.50;;;2.00;;
13683;SDS011;6914;53.552;9.908;2023-07-30T14:18:55;3.17;;;1.83;;
13683;SDS011;6914;53.552;9.908;2023-07-30T14:21:22;4.30;;;1.80;;
13683;SDS011;6914;53.552;9.908;2023-07-30T14:23:49;6.40;;;2.03;;
13683;SDS011;6914;53.552;9.908;2023-07-30T14:26:17;2.20;;;1.50;;
13683;SDS011;6914;53.552;9.908;2023-07-30T14:28:44;4.00;;;1.90;;
13683;SDS011;6914;53.552;9.908;2023-07-30T14:31:12;5.00;;;1.90;;
13683;SDS011;6914;53.552;9.908;2023-07-30T14:33:40;3.90;;;1.73;;
13683;SDS011;6914;53.552;9.908;2023-07-30T14:36:07;2.27;;;1.63;;
13683;SDS011;6914;53.552;9.908;2023-07-30T14:38:36;12.13;;;2.40;;
13683;SDS011;6914;53.552;9.908;2023-07-30T14:41:03;3.50;;;2.10;;
13683;SDS011;6914;53.552;9.908;2023-07-30T14:43:30;8.20;;;2.07;;
13683;SDS011;6914;53.552;9.908;2023-07-30T14:45:58;8.13;;;2.60;;
13683;SDS011;6914;53.552;9.908;2023-07-30T14:48:26;3.03;;;1.87;;
13683;SDS011;6914;53.552;9.908;2023-07-30T14:50:53;3.73;;;2.10;;
13683;SDS011;6914;53.552;9.908;2023-07-30T14:53:20;4.20;;;1.87;;